Map

Track Data

SID SEASON NUMBER BASIN SUBBASIN NAME ISO_TIME NATURE LAT LON WMO_WIND WMO_PRES WMO_AGENCY TRACK_TYPE DIST2LAND LANDFALL IFLAG USA_AGENCY USA_ATCF_ID USA_LAT USA_LON USA_RECORD USA_STATUS USA_WIND USA_PRES USA_SSHS USA_R34_NE USA_R34_SE USA_R34_SW USA_R34_NW USA_R50_NE USA_R50_SE USA_R50_SW USA_R50_NW USA_R64_NE USA_R64_SE USA_R64_SW USA_R64_NW USA_POCI USA_ROCI USA_RMW USA_EYE TOKYO_LAT TOKYO_LON TOKYO_GRADE TOKYO_WIND TOKYO_PRES TOKYO_R50_DIR TOKYO_R50_LONG TOKYO_R50_SHORT TOKYO_R30_DIR TOKYO_R30_LONG TOKYO_R30_SHORT TOKYO_LAND CMA_LAT CMA_LON CMA_CAT CMA_WIND CMA_PRES HKO_LAT HKO_LON HKO_CAT HKO_WIND HKO_PRES NEWDELHI_LAT NEWDELHI_LON NEWDELHI_GRADE NEWDELHI_WIND NEWDELHI_PRES NEWDELHI_CI NEWDELHI_DP NEWDELHI_POCI REUNION_LAT REUNION_LON REUNION_TYPE REUNION_WIND REUNION_PRES REUNION_TNUM REUNION_CI REUNION_RMW REUNION_R34_NE REUNION_R34_SE REUNION_R34_SW REUNION_R34_NW REUNION_R50_NE REUNION_R50_SE REUNION_R50_SW REUNION_R50_NW REUNION_R64_NE REUNION_R64_SE REUNION_R64_SW REUNION_R64_NW BOM_LAT BOM_LON BOM_TYPE BOM_WIND BOM_PRES BOM_TNUM BOM_CI BOM_RMW BOM_R34_NE BOM_R34_SE BOM_R34_SW BOM_R34_NW BOM_R50_NE BOM_R50_SE BOM_R50_SW BOM_R50_NW BOM_R64_NE BOM_R64_SE BOM_R64_SW BOM_R64_NW BOM_ROCI BOM_POCI BOM_EYE BOM_POS_METHOD BOM_PRES_METHOD NADI_LAT NADI_LON NADI_CAT NADI_WIND NADI_PRES WELLINGTON_LAT WELLINGTON_LON WELLINGTON_WIND WELLINGTON_PRES DS824_LAT DS824_LON DS824_STAGE DS824_WIND DS824_PRES TD9636_LAT TD9636_LON TD9636_STAGE TD9636_WIND TD9636_PRES TD9635_LAT TD9635_LON TD9635_WIND TD9635_PRES TD9635_ROCI NEUMANN_LAT NEUMANN_LON NEUMANN_CLASS NEUMANN_WIND NEUMANN_PRES MLC_LAT MLC_LON MLC_CLASS MLC_WIND MLC_PRES USA_GUST BOM_GUST BOM_GUST_PER REUNION_GUST REUNION_GUST_PER USA_SEAHGT USA_SEARAD_NE USA_SEARAD_SE USA_SEARAD_SW USA_SEARAD_NW STORM_SPEED STORM_DIR
1961159N21090 1961 44 NI BB NOT_NAMED 1961-06-07 18:00:00 TS 20.7000 90.4000 main 124 112 O________O____ jtwc_io IO061961 20.7000 90.4000 -1 20.7000 90.4000 TC 3 323
1961159N21090 1961 44 NI BB NOT_NAMED 1961-06-07 21:00:00 TS 20.8050 90.3175 main 112 100 P________P____ IO061961 20.8050 90.3175 -1 20.8050 90.3175 TC 3 317
1961159N21090 1961 44 NI BB NOT_NAMED 1961-06-08 00:00:00 TS 20.9000 90.2000 main 100 89 O________O____ jtwc_io IO061961 20.9000 90.2000 -1 20.9000 90.2000 TC 25 3 303
1961159N21090 1961 44 NI BB NOT_NAMED 1961-06-08 03:00:00 TS 20.9867 90.0199 main 90 78 P________PO___ IO061961 20.9850 90.0224 -1 20.9850 90.0224 TC 25 21.0000 90.0000 1 4 299
1961159N21090 1961 44 NI BB NOT_NAMED 1961-06-08 06:00:00 TS 21.1113 89.7963 main 78 49 O________OP___ jtwc_io IO061961 21.1000 89.8000 -1 21.1000 89.8000 TC 25 21.1565 89.7816 1 5 306
1961159N21090 1961 44 NI BB NOT_NAMED 1961-06-08 09:00:00 TS 21.3028 89.5584 main 49 22 P________PP___ IO061961 21.3000 89.5576 -1 21.3000 89.5576 TC 25 21.3103 89.5604 1 6 310
1961159N21090 1961 44 NI BB NOT_NAMED 1961-06-08 12:00:00 TS 21.4863 89.3113 main 23 0 O________OP___ jtwc_io IO061961 21.5000 89.3000 -1 21.5000 89.3000 TC 25 21.4589 89.3340 1 5 303
1961159N21090 1961 44 NI BB NOT_NAMED 1961-06-08 15:00:00 TS 21.6050 89.0666 main 0 0 P________PO___ IO061961 21.6075 89.0499 -1 21.6075 89.0499 TC 25 21.6000 89.1000 1 5 296
1961159N21090 1961 44 NI BB NOT_NAMED 1961-06-08 18:00:00 TS 21.7107 88.8185 main 0 0 O________OP___ jtwc_io IO061961 21.7000 88.8000 -1 21.7000 88.8000 TC 25 21.7320 88.8554 1 5 298
1961159N21090 1961 44 NI BB NOT_NAMED 1961-06-08 21:00:00 TS 21.8523 88.5699 main 0 0 P________PP___ IO061961 21.8499 88.5575 -1 21.8499 88.5575 TC 25 21.8571 88.5946 1 6 301
1961159N21090 1961 44 NI BB NOT_NAMED 1961-06-09 00:00:00 TS 21.9929 88.3039 main 0 0 O________OP___ jtwc_io IO061961 22.0000 88.3000 -1 22.0000 88.3000 TC 25 21.9787 88.3116 1 6 296
1961159N21090 1961 44 NI BB NOT_NAMED 1961-06-09 03:00:00 TS 22.0999 88.0149 main 0 0 P________PO___ IO061961 22.0999 88.0223 -1 22.0999 88.0223 TC 25 22.1000 88.0000 1 6 291
1961159N21090 1961 44 NI BB NOT_NAMED 1961-06-09 06:00:00 TS 22.2139 87.6766 main 0 0 O________OP___ jtwc_io IO061961 22.2000 87.7000 -1 22.2000 87.7000 TC 25 22.2416 87.6297 1 7 291
1961159N21090 1961 44 NI BB NOT_NAMED 1961-06-09 09:00:00 TS 22.3602 87.2836 main 0 0 P________PP___ IO061961 22.3501 87.3076 -1 22.3501 87.3076 TC 25 22.3806 87.2355 1 8 291
1961159N21090 1961 44 NI BB NOT_NAMED 1961-06-09 12:00:00 TS 22.5014 86.8828 main 0 0 O________OP___ jtwc_io IO061961 22.5000 86.9000 -1 22.5000 86.9000 TC 25 22.5042 86.8485 1 8 290
1961159N21090 1961 44 NI BB NOT_NAMED 1961-06-09 15:00:00 TS 22.6150 86.5133 main 0 0 P________PO___ IO061961 22.6225 86.5200 -1 22.6225 86.5200 TC 25 22.6000 86.5000 1 6 286
1961159N21090 1961 44 NI BB NOT_NAMED 1961-06-09 18:00:00 TS 22.6816 86.2199 main 0 0 O________OP___ jtwc_io IO061961 22.7000 86.2000 -1 22.7000 86.2000 TC 25 22.6448 86.2597 1 5 280
1961159N21090 1961 44 NI BB NOT_NAMED 1961-06-09 21:00:00 TS 22.6928 86.0138 main 0 0 P________PP___ IO061961 22.7073 85.9924 -1 22.7073 85.9924 TC 25 22.6639 86.0567 1 4 272
1961159N21090 1961 44 NI BB NOT_NAMED 1961-06-10 00:00:00 TS 22.6920 85.8168 main 0 0 O________OP___ jtwc_io IO061961 22.7000 85.8000 -1 22.7000 85.8000 TC 25 22.6760 85.8504 1 4 275
1961159N21090 1961 44 NI BB NOT_NAMED 1961-06-10 03:00:00 TS 22.7282 85.5583 main 0 0 P________PO___ IO061961 22.7424 85.5375 -1 22.7424 85.5375 TC 25 22.7000 85.6000 1 6 279
1961159N21090 1961 44 NI BB NOT_NAMED 1961-06-10 06:00:00 TS 22.7831 85.1992 main 0 0 O________OP___ jtwc_io IO061961 22.8000 85.2000 -1 22.8000 85.2000 TC 25 22.7494 85.1977 1 8 278
1961159N21090 1961 44 NI BB NOT_NAMED 1961-06-10 09:00:00 TS 22.8331 84.7468 main 0 0 P________PP___ IO061961 22.8428 84.7425 -1 22.8428 84.7425 TC 25 22.8138 84.7553 1 8 278
1961159N21090 1961 44 NI BB NOT_NAMED 1961-06-10 12:00:00 TS 22.8987 84.3118 main 0 0 O________OP___ jtwc_io IO061961 22.9000 84.3000 -1 22.9000 84.3000 TC 25 22.8962 84.3353 1 7 282
1961159N21090 1961 44 NI BB NOT_NAMED 1961-06-10 15:00:00 TS 22.9849 83.9933 main 0 0 P________PO___ IO061961 22.9774 83.9900 -1 22.9774 83.9900 TC 25 23.0000 84.0000 1 5 294
1961159N21090 1961 44 NI BB NOT_NAMED 1961-06-10 18:00:00 TS 23.1120 83.8024 main 0 0 O________OP___ jtwc_io IO061961 23.1000 83.8000 -1 23.1000 83.8000 TC 25 23.1359 83.8071 1 4 320
1961159N21090 1961 44 NI BB NOT_NAMED 1961-06-10 21:00:00 TS 23.2972 83.7058 main 0 0 P________PP___ IO061961 23.2999 83.7050 -1 23.2999 83.7050 TC 25 23.2918 83.7074 1 4 346
1961159N21090 1961 44 NI BB NOT_NAMED 1961-06-11 00:00:00 TS 23.4839 83.6930 main 0 0 O________OP___ jtwc_io IO061961 23.5000 83.7000 -1 23.5000 83.7000 TC 25 23.4518 83.6790 1 3 0
1961159N21090 1961 44 NI BB NOT_NAMED 1961-06-11 03:00:00 TS 23.6100 83.7233 main 0 0 P________PO___ IO061961 23.6150 83.7350 -1 23.6150 83.7350 TC 25 23.6000 83.7000 1 2 19
1961159N21090 1961 44 NI BB NOT_NAMED 1961-06-11 06:00:00 TS 23.7048 83.7772 main 0 0 O________OP___ jtwc_io IO061961 23.7000 83.8000 -1 23.7000 83.8000 TC 25 23.7144 83.7317 1 2 26
1961159N21090 1961 44 NI BB NOT_NAMED 1961-06-11 09:00:00 TS 23.8050 83.8300 main 0 0 P________PP___ IO061961 23.8000 83.8425 -1 23.8000 83.8425 TC 25 23.8150 83.8048 1 2 29
1961159N21090 1961 44 NI BB NOT_NAMED 1961-06-11 12:00:00 TS 23.9027 83.9002 main 0 0 O________OP___ jtwc_io IO061961 23.9000 83.9000 -1 23.9000 83.9000 TC 25 23.9081 83.9005 1 3 38
1961159N21090 1961 44 NI BB NOT_NAMED 1961-06-11 15:00:00 TS 24.0000 84.0000 main 0 0 P________PO___ IO061961 24.0000 84.0000 -1 24.0000 84.0000 TC 25 24.0000 84.0000 1 3 41
1961159N21090 1961 44 NI BB NOT_NAMED 1961-06-11 18:00:00 TS 24.1013 84.0903 main 0 0 O________OP___ jtwc_io IO061961 24.1000 84.1000 -1 24.1000 84.1000 TC 25 24.1040 84.0710 1 2 34
1961159N21090 1961 44 NI BB NOT_NAMED 1961-06-11 21:00:00 TS 24.2025 84.1475 main 0 0 P________PP___ IO061961 24.2000 84.1500 -1 24.2000 84.1500 TC 25 24.2075 84.1425 1 2 28
1961159N21090 1961 44 NI BB NOT_NAMED 1961-06-12 00:00:00 TS 24.3024 84.2059 main 0 0 O________OP___ jtwc_io IO061961 24.3000 84.2000 -1 24.3000 84.2000 TC 25 24.3072 84.2178 1 2 34
1961159N21090 1961 44 NI BB NOT_NAMED 1961-06-12 03:00:00 TS 24.4050 84.2950 main 0 0 P________PO___ IO061961 24.4075 84.2925 -1 24.4075 84.2925 TC 25 24.4000 84.3000 1 3 42
1961159N21090 1961 44 NI BB NOT_NAMED 1961-06-12 06:00:00 TS 24.4927 84.3949 main 0 0 O________OP___ jtwc_io IO061961 24.5000 84.4000 -1 24.5000 84.4000 TC 25 24.4781 84.3848 1 2 51
1961159N21090 1961 44 NI BB NOT_NAMED 1961-06-12 09:00:00 TS 24.5500 84.4926 main 0 0 P________PP___ IO061961 24.5500 84.5000 -1 24.5500 84.5000 TC 25 24.5499 84.4777 1 2 57
1961159N21090 1961 44 NI BB NOT_NAMED 1961-06-12 12:00:00 TS 24.6073 84.5939 main 0 0 O________OP___ jtwc_io IO061961 24.6000 84.6000 -1 24.6000 84.6000 TC 25 24.6218 84.5817 1 2 52
1961159N21090 1961 44 NI BB NOT_NAMED 1961-06-12 15:00:00 TS 24.6950 84.6950 main 0 0 P________PO___ IO061961 24.6925 84.6925 -1 24.6925 84.6925 TC 25 24.7000 84.7000 1 3 44
1961159N21090 1961 44 NI BB NOT_NAMED 1961-06-12 18:00:00 TS 24.7989 84.8011 main 0 0 O________OP___ jtwc_io IO061961 24.8000 84.8000 -1 24.8000 84.8000 TC 25 24.7966 84.8032 1 3 46
1961159N21090 1961 44 NI BB NOT_NAMED 1961-06-12 21:00:00 TS 24.8998 84.9268 main 0 0 P________PP___ IO061961 24.8999 84.9275 -1 24.8999 84.9275 TC 25 24.8995 84.9252 1 3 53
1961159N21090 1961 44 NI BB NOT_NAMED 1961-06-13 00:00:00 TS 25.0009 85.0948 main 0 0 O________OP___ jtwc_io IO061961 25.0000 85.1000 -1 25.0000 85.1000 TC 25 25.0027 85.0845 1 4 59
1961159N21090 1961 44 NI BB NOT_NAMED 1961-06-13 03:00:00 TS 25.1049 85.3083 main 0 0 P________PO___ IO061961 25.1074 85.3125 -1 25.1074 85.3125 TC 25 25.1000 85.3000 1 5 67
1961159N21090 1961 44 NI BB NOT_NAMED 1961-06-13 06:00:00 TS 25.1956 85.6015 main 0 0 O________OP___ jtwc_io IO061961 25.2000 85.6000 -1 25.2000 85.6000 TC 25 25.1867 85.6046 1 6 76
1961159N21090 1961 44 NI BB NOT_NAMED 1961-06-13 09:00:00 TS 25.2553 85.9825 main 0 0 P________PP___ IO061961 25.2502 85.9926 -1 25.2502 85.9926 TC 25 25.2656 85.9623 1 7 81
1961159N21090 1961 44 NI BB NOT_NAMED 1961-06-13 12:00:00 TS 25.3122 86.3797 main 0 0 O________OP___ jtwc_io IO061961 25.3000 86.4000 -1 25.3000 86.4000 TC 25 25.3367 86.3390 1 7 78
1961159N21090 1961 44 NI BB NOT_NAMED 1961-06-13 15:00:00 TS 25.3999 86.7150 main 0 0 P________PO___ IO061961 25.3999 86.7225 -1 25.3999 86.7225 TC 25 25.4000 86.7000 1 6 73
1961159N21090 1961 44 NI BB NOT_NAMED 1961-06-13 18:00:00 TS 25.4825 87.0075 main 0 0 O________OP___ jtwc_io IO061961 25.5000 87.0000 -1 25.5000 87.0000 TC 25 25.4563 87.0188 1 5 75
1961159N21090 1961 44 NI BB NOT_NAMED 1961-06-13 21:00:00 TS 25.5389 87.2743 main 0 0 P________PP___ IO061961 25.5626 87.2550 -1 25.5626 87.2550 TC 25 25.5073 87.3000 1 5 79
1961159N21090 1961 44 NI BB NOT_NAMED 1961-06-14 00:00:00 TS 25.5773 87.5281 main 0 0 O________OP___ jtwc_io IO061961 25.6000 87.5000 -1 25.6000 87.5000 TC 25 25.5546 87.5562 1 5 83
1961159N21090 1961 44 NI BB NOT_NAMED 1961-06-14 03:00:00 NR 25.6000 87.8000 main 0 __________O___ IO061961 -1 TC 25.6000 87.8000 1 5 85

About IBTrACS Database

This database is a web-friendly format of International Best Track Archive for Climate Stewardship (IBTrACS), a global best track data archive curated by NOAA dating back to 1842.

Updated: 2021-12-01